Time;durP1;ratioP1;P1;durP2;ratioP2;P2;SDS_P1;SDS_P2;PMS_P1;PMS_P2;Temp;Humidity;BMP_temperature;BMP_pressure;BME280_temperature;BME280_humidity;BME280_pressure;Samples;Min_cycle;Max_cycle;Signal;HPM_P1;HPM_P2
2021/07/29 00:00:37;;;;;;;;;;;16.10;99.90;;;;;;5075993;28;19913;-68
2021/07/29 00:03:03;;;;;;;;;;;16.10;99.90;;;;;;5094189;28;19915;-69
2021/07/29 00:05:29;;;;;;;;;;;16.10;99.90;;;;;;5094178;28;19915;-69
2021/07/29 00:07:55;;;;;;;;;;;16.10;99.90;;;;;;5094134;28;19908;-69
2021/07/29 00:10:21;;;;;;;;;;;16.10;99.90;;;;;;5094094;28;19915;-70
2021/07/29 00:12:47;;;;;;;;;;;16.00;99.90;;;;;;5076322;28;19954;-70
2021/07/29 00:15:14;;;;;;;;;;;16.00;99.90;;;;;;5094343;28;19961;-69
2021/07/29 00:20:27;;;;;;;;;;;16.00;99.90;;;;;;5092313;27;19912;-68
2021/07/29 00:22:56;;;;;;;;;;;16.00;99.90;;;;;;5090192;28;19952;-71
2021/07/29 00:25:22;;;;;;;;;;;16.00;99.90;;;;;;5091379;28;20366;-67
2021/07/29 00:27:48;;;;;;;;;;;16.00;99.90;;;;;;5091355;28;19912;-70
2021/07/29 00:30:14;;;;;;;;;;;16.00;99.90;;;;;;5090634;28;20372;-70
2021/07/29 00:32:40;;;;;;;;;;;16.00;99.90;;;;;;5091827;28;19954;-70
2021/07/29 00:35:07;;;;;;;;;;;16.00;99.90;;;;;;5124438;28;19909;-70
2021/07/29 00:37:33;;;;;;;;;;;16.00;99.90;;;;;;5091455;28;20000;-70
2021/07/29 00:39:58;;;;;;;;;;;16.00;99.90;;;;;;5090388;28;20003;-70
2021/07/29 00:42:24;;;;;;;;;;;15.90;99.90;;;;;;5091410;28;19969;-70
2021/07/29 00:44:49;;;;;;;;;;;16.00;99.90;;;;;;5091033;28;19973;-70
2021/07/29 00:47:16;;;;;;;;;;;15.90;99.90;;;;;;5089719;28;19916;-70
2021/07/29 00:49:42;;;;;;;;;;;15.90;99.90;;;;;;5090925;28;19908;-70
2021/07/29 00:52:07;;;;;;;;;;;15.90;99.90;;;;;;5123993;28;19918;-70
2021/07/29 00:54:33;;;;;;;;;;;15.90;99.90;;;;;;5089587;28;20285;-70
2021/07/29 00:56:59;;;;;;;;;;;15.90;99.90;;;;;;5090791;28;20010;-70
2021/07/29 00:59:25;;;;;;;;;;;15.80;99.90;;;;;;5090672;28;19912;-70
2021/07/29 01:01:50;;;;;;;;;;;15.80;99.90;;;;;;5090685;28;19915;-70
2021/07/29 01:04:16;;;;;;;;;;;15.80;99.90;;;;;;5123886;28;19908;-70
2021/07/29 01:06:42;;;;;;;;;;;15.80;99.90;;;;;;5090922;28;19908;-70
2021/07/29 01:09:09;;;;;;;;;;;15.80;99.90;;;;;;5090851;28;20353;-70
2021/07/29 01:11:35;;;;;;;;;;;15.70;99.90;;;;;;5090818;28;19954;-70
2021/07/29 01:14:00;;;;;;;;;;;15.80;99.90;;;;;;5123724;28;19909;-69
2021/07/29 01:16:26;;;;;;;;;;;15.70;99.90;;;;;;5089179;28;20448;-70
2021/07/29 01:18:51;;;;;;;;;;;15.70;99.90;;;;;;5097636;28;20351;-70
2021/07/29 01:21:17;;;;;;;;;;;15.80;99.90;;;;;;5110724;28;19999;-70
2021/07/29 01:23:42;;;;;;;;;;;15.80;99.90;;;;;;5110990;28;19922;-69
2021/07/29 01:26:08;;;;;;;;;;;15.80;99.90;;;;;;5075500;28;20289;-70
2021/07/29 01:28:33;;;;;;;;;;;15.70;99.90;;;;;;5092707;28;19915;-70
2021/07/29 01:30:59;;;;;;;;;;;15.70;99.90;;;;;;5066446;28;19908;-70
2021/07/29 01:33:24;;;;;;;;;;;15.70;99.90;;;;;;5079371;28;19908;-69
2021/07/29 01:35:49;;;;;;;;;;;15.70;99.90;;;;;;5078634;28;19908;-69
2021/07/29 01:38:15;;;;;;;;;;;15.70;99.90;;;;;;5096747;28;19941;-69
2021/07/29 01:40:40;;;;;;;;;;;15.70;99.90;;;;;;5078711;28;20258;-69
2021/07/29 01:43:06;;;;;;;;;;;15.80;99.90;;;;;;5078526;28;20289;-70
2021/07/29 01:45:31;;;;;;;;;;;15.80;99.90;;;;;;5078596;28;20300;-70
2021/07/29 01:47:57;;;;;;;;;;;15.80;99.90;;;;;;5096618;28;19955;-69
2021/07/29 01:50:22;;;;;;;;;;;15.80;99.90;;;;;;5096845;28;19915;-69
2021/07/29 01:52:48;;;;;;;;;;;15.80;99.90;;;;;;5096795;28;19908;-69
2021/07/29 01:55:13;;;;;;;;;;;15.80;99.90;;;;;;5096489;28;20011;-69
2021/07/29 01:57:39;;;;;;;;;;;15.80;99.90;;;;;;5078673;28;20349;-70
2021/07/29 02:00:05;;;;;;;;;;;15.90;99.90;;;;;;5078170;28;20292;-70
2021/07/29 02:02:31;;;;;;;;;;;15.90;99.90;;;;;;5096323;28;19908;-69
2021/07/29 02:04:56;;;;;;;;;;;15.90;99.90;;;;;;5078541;28;19915;-69
2021/07/29 02:07:22;;;;;;;;;;;15.90;99.90;;;;;;5078090;28;19909;-69
2021/07/29 02:09:47;;;;;;;;;;;15.80;99.90;;;;;;5078383;28;19912;-70
2021/07/29 02:12:12;;;;;;;;;;;15.80;99.90;;;;;;5096418;28;20057;-69
2021/07/29 02:14:38;;;;;;;;;;;15.80;99.90;;;;;;5096371;28;19954;-70
2021/07/29 02:17:03;;;;;;;;;;;15.80;99.90;;;;;;5077908;28;19915;-70
2021/07/29 02:19:29;;;;;;;;;;;15.80;99.90;;;;;;5095746;28;20458;-69
2021/07/29 02:21:54;;;;;;;;;;;15.80;99.90;;;;;;5078387;28;19909;-69
2021/07/29 02:24:20;;;;;;;;;;;15.80;99.90;;;;;;5078101;28;19908;-70
2021/07/29 02:26:45;;;;;;;;;;;15.70;99.90;;;;;;5078274;28;19955;-70
2021/07/29 02:29:11;;;;;;;;;;;15.70;99.90;;;;;;5096358;28;19908;-70
2021/07/29 02:31:37;;;;;;;;;;;15.70;99.90;;;;;;5096043;28;20015;-70
2021/07/29 02:34:02;;;;;;;;;;;15.60;99.90;;;;;;5095967;28;19908;-70
2021/07/29 02:36:28;;;;;;;;;;;15.70;99.90;;;;;;5095847;28;19908;-70
2021/07/29 02:38:53;;;;;;;;;;;15.70;99.90;;;;;;5095812;28;19912;-70
2021/07/29 02:41:19;;;;;;;;;;;15.70;99.90;;;;;;5077147;28;19908;-71
2021/07/29 02:43:45;;;;;;;;;;;15.60;99.90;;;;;;5094839;28;19915;-70
2021/07/29 02:46:11;;;;;;;;;;;15.60;99.90;;;;;;5077748;28;19974;-69
2021/07/29 02:48:37;;;;;;;;;;;15.60;99.90;;;;;;5095738;28;19908;-70
2021/07/29 02:51:02;;;;;;;;;;;15.60;99.90;;;;;;5095682;28;19908;-69
2021/07/29 02:53:32;;;;;;;;;;;15.60;99.90;;;;;;5095619;28;19908;-69
2021/07/29 02:55:58;;;;;;;;;;;15.60;99.90;;;;;;5077194;28;19912;-69
2021/07/29 02:58:24;;;;;;;;;;;15.50;99.90;;;;;;5095199;28;19912;-69
2021/07/29 03:00:50;;;;;;;;;;;15.50;99.90;;;;;;5095188;28;19947;-69
2021/07/29 03:03:16;;;;;;;;;;;15.50;99.90;;;;;;5095744;28;19997;-70
2021/07/29 03:05:41;;;;;;;;;;;15.50;99.90;;;;;;5076944;28;19913;-70
2021/07/29 03:08:07;;;;;;;;;;;15.50;99.90;;;;;;5095051;28;19912;-69
2021/07/29 03:10:32;;;;;;;;;;;15.50;99.90;;;;;;5095046;28;19908;-69
2021/07/29 03:13:01;;;;;;;;;;;15.50;99.90;;;;;;5077080;28;19947;-69
2021/07/29 03:15:28;;;;;;;;;;;15.40;99.90;;;;;;5095203;28;19908;-70
2021/07/29 03:17:53;;;;;;;;;;;15.40;99.90;;;;;;5076724;28;19908;-69
2021/07/29 03:20:20;;;;;;;;;;;15.40;99.90;;;;;;5076416;28;19920;-69
2021/07/29 03:22:45;;;;;;;;;;;15.40;99.90;;;;;;5077146;28;20365;-69
2021/07/29 03:25:11;;;;;;;;;;;15.40;99.90;;;;;;5076551;28;19916;-69
2021/07/29 03:27:36;;;;;;;;;;;15.30;99.90;;;;;;5095018;28;19922;-69
2021/07/29 03:30:02;;;;;;;;;;;15.20;99.90;;;;;;5076878;28;19909;-70
2021/07/29 03:32:27;;;;;;;;;;;15.30;99.90;;;;;;5076442;28;20435;-69
2021/07/29 03:34:53;;;;;;;;;;;15.30;99.90;;;;;;5060010;28;19909;-69
2021/07/29 03:37:18;;;;;;;;;;;15.30;99.90;;;;;;5094513;28;20112;-69
2021/07/29 03:39:43;;;;;;;;;;;15.30;99.90;;;;;;5094450;28;19974;-70
2021/07/29 03:42:09;;;;;;;;;;;15.30;99.90;;;;;;5094453;28;19912;-69
2021/07/29 03:44:34;;;;;;;;;;;15.30;99.90;;;;;;5076656;28;19908;-69
2021/07/29 03:47:00;;;;;;;;;;;15.30;99.90;;;;;;5094910;28;20372;-70
2021/07/29 03:49:25;;;;;;;;;;;15.30;99.90;;;;;;5076259;28;20010;-70
2021/07/29 03:51:51;;;;;;;;;;;15.30;99.90;;;;;;5094284;28;20377;-69
2021/07/29 03:54:16;;;;;;;;;;;15.30;99.90;;;;;;5059745;28;19970;-70
2021/07/29 03:56:43;;;;;;;;;;;15.30;99.90;;;;;;5076434;28;19916;-69
2021/07/29 03:59:08;;;;;;;;;;;15.30;99.90;;;;;;5076145;28;19919;-69
2021/07/29 04:01:34;;;;;;;;;;;15.30;99.90;;;;;;5094148;28;19912;-69
2021/07/29 04:03:59;;;;;;;;;;;15.20;99.90;;;;;;5094117;28;19994;-69
2021/07/29 04:06:25;;;;;;;;;;;15.20;99.90;;;;;;5076037;28;19908;-72
2021/07/29 04:08:50;;;;;;;;;;;15.20;99.90;;;;;;5059178;28;20312;-72
2021/07/29 04:11:16;;;;;;;;;;;15.30;99.90;;;;;;5094003;28;19909;-72
2021/07/29 04:13:41;;;;;;;;;;;15.30;99.90;;;;;;5093941;28;19908;-72
2021/07/29 04:16:08;;;;;;;;;;;15.30;99.90;;;;;;5094294;28;20468;-72
2021/07/29 04:18:33;;;;;;;;;;;15.30;99.90;;;;;;5094099;28;19923;-72
2021/07/29 04:20:59;;;;;;;;;;;15.30;99.90;;;;;;5093928;28;19908;-72
2021/07/29 04:23:25;;;;;;;;;;;15.30;99.90;;;;;;5075847;28;19908;-72
2021/07/29 04:25:50;;;;;;;;;;;15.30;99.90;;;;;;5075847;28;19908;-72
2021/07/29 04:28:16;;;;;;;;;;;15.30;99.90;;;;;;5093892;28;19909;-72
2021/07/29 04:30:41;;;;;;;;;;;15.30;99.90;;;;;;5093870;28;19914;-72
2021/07/29 04:33:08;;;;;;;;;;;15.30;99.90;;;;;;5059591;28;19987;-72
2021/07/29 04:35:33;;;;;;;;;;;15.40;99.90;;;;;;5076289;28;20376;-72
2021/07/29 04:37:58;;;;;;;;;;;15.40;99.90;;;;;;5094070;28;19912;-71
2021/07/29 04:40:24;;;;;;;;;;;15.40;99.90;;;;;;5075661;28;19920;-70
2021/07/29 04:42:49;;;;;;;;;;;15.40;99.90;;;;;;5093744;28;19934;-70
2021/07/29 04:45:15;;;;;;;;;;;15.50;99.90;;;;;;5076008;28;19958;-70
2021/07/29 04:47:40;;;;;;;;;;;15.80;99.90;;;;;;5094028;28;19915;-70
2021/07/29 04:50:06;;;;;;;;;;;16.40;99.90;;;;;;5075665;28;19915;-71
2021/07/29 04:52:31;;;;;;;;;;;16.30;99.90;;;;;;5058894;28;19908;-70
2021/07/29 04:54:57;;;;;;;;;;;16.50;99.90;;;;;;5093656;28;19912;-70
2021/07/29 04:57:22;;;;;;;;;;;16.20;99.90;;;;;;5075911;28;19909;-70
2021/07/29 04:59:48;;;;;;;;;;;16.10;99.90;;;;;;5093821;28;19916;-70
2021/07/29 05:02:17;;;;;;;;;;;16.00;99.90;;;;;;5076391;28;20019;-70
2021/07/29 05:04:42;;;;;;;;;;;16.00;99.90;;;;;;5093855;28;19908;-70
2021/07/29 05:07:10;;;;;;;;;;;15.90;99.90;;;;;;5097383;28;20277;-71
2021/07/29 05:09:36;;;;;;;;;;;15.90;99.90;;;;;;5097307;28;20365;-71
2021/07/29 05:12:01;;;;;;;;;;;15.80;99.90;;;;;;5097275;28;19909;-68
2021/07/29 05:14:27;;;;;;;;;;;15.80;99.90;;;;;;5079678;28;20317;-70
2021/07/29 05:16:52;;;;;;;;;;;16.00;99.90;;;;;;5097529;28;19916;-70
2021/07/29 05:19:18;;;;;;;;;;;16.30;99.90;;;;;;5075704;28;20397;-70
2021/07/29 05:21:43;;;;;;;;;;;16.50;99.90;;;;;;5075606;28;19916;-71
2021/07/29 05:24:08;;;;;;;;;;;16.50;99.90;;;;;;5077387;28;19962;-70
2021/07/29 05:26:34;;;;;;;;;;;16.40;99.90;;;;;;5075523;28;20006;-70
2021/07/29 05:29:00;;;;;;;;;;;16.30;99.90;;;;;;5077035;28;19908;-70
2021/07/29 05:31:25;;;;;;;;;;;16.20;99.90;;;;;;5076960;28;20454;-71
2021/07/29 05:33:51;;;;;;;;;;;16.20;99.90;;;;;;5076903;28;19909;-70
2021/07/29 05:36:16;;;;;;;;;;;16.10;99.90;;;;;;5077137;28;19908;-67
2021/07/29 05:38:42;;;;;;;;;;;16.10;99.90;;;;;;5077033;28;19919;-71
2021/07/29 05:41:08;;;;;;;;;;;16.50;99.90;;;;;;5076058;28;20007;-68
2021/07/29 05:43:35;;;;;;;;;;;17.10;99.90;;;;;;5076776;28;19915;-70
2021/07/29 05:46:01;;;;;;;;;;;17.70;99.90;;;;;;5077002;28;19915;-70
2021/07/29 05:48:26;;;;;;;;;;;18.40;99.90;;;;;;5109410;28;19908;-70
2021/07/29 05:50:56;;;;;;;;;;;18.30;99.90;;;;;;5092516;28;19908;-70
2021/07/29 05:53:22;;;;;;;;;;;18.40;99.90;;;;;;5076565;28;19916;-70
2021/07/29 05:55:48;;;;;;;;;;;18.70;99.90;;;;;;5076534;28;19916;-70
2021/07/29 05:58:13;;;;;;;;;;;18.10;99.90;;;;;;5076418;28;19909;-70
2021/07/29 06:00:38;;;;;;;;;;;17.60;99.90;;;;;;5076414;28;20316;-71
2021/07/29 06:03:04;;;;;;;;;;;17.00;99.90;;;;;;5109059;28;20323;-70
2021/07/29 06:05:29;;;;;;;;;;;17.00;99.90;;;;;;5076282;28;19908;-70
2021/07/29 06:07:55;;;;;;;;;;;17.10;99.90;;;;;;5105073;28;19961;-67
2021/07/29 06:10:20;;;;;;;;;;;17.00;99.90;;;;;;5074152;28;19935;-71
2021/07/29 06:12:46;;;;;;;;;;;17.00;99.90;;;;;;5073826;28;20009;-70
2021/07/29 06:15:11;;;;;;;;;;;17.20;99.90;;;;;;5075393;28;19912;-71
2021/07/29 06:17:38;;;;;;;;;;;17.30;99.90;;;;;;5074113;28;20361;-70
2021/07/29 06:20:05;;;;;;;;;;;17.30;99.90;;;;;;5073002;28;19947;-70
2021/07/29 06:22:32;;;;;;;;;;;17.30;99.90;;;;;;5074542;28;20015;-71
2021/07/29 06:24:58;;;;;;;;;;;17.70;99.90;;;;;;5074558;28;19913;-70
2021/07/29 06:27:23;;;;;;;;;;;18.20;99.90;;;;;;5057678;28;19916;-71
2021/07/29 06:29:49;;;;;;;;;;;18.30;99.90;;;;;;5074359;28;19913;-70
2021/07/29 06:32:14;;;;;;;;;;;18.40;99.90;;;;;;5074081;28;20281;-70
2021/07/29 06:34:40;;;;;;;;;;;18.80;99.90;;;;;;5075572;28;19908;-71
2021/07/29 06:37:05;;;;;;;;;;;19.00;99.90;;;;;;5073890;28;19913;-70
2021/07/29 06:39:31;;;;;;;;;;;19.80;99.90;;;;;;5075102;28;19919;-70
2021/07/29 06:41:56;;;;;;;;;;;19.20;99.90;;;;;;5074021;28;20003;-70
2021/07/29 06:44:22;;;;;;;;;;;19.00;99.90;;;;;;5104465;27;19972;-70
2021/07/29 06:46:47;;;;;;;;;;;19.40;99.90;;;;;;5073441;28;19977;-70
2021/07/29 06:49:13;;;;;;;;;;;20.20;99.90;;;;;;5072734;28;19908;-70
2021/07/29 06:51:38;;;;;;;;;;;21.00;99.90;;;;;;5078027;28;19920;-70
2021/07/29 06:54:05;;;;;;;;;;;20.80;99.90;;;;;;5090256;28;19915;-69
2021/07/29 06:56:31;;;;;;;;;;;21.00;99.90;;;;;;5068763;28;20634;-70
2021/07/29 06:58:57;;;;;;;;;;;20.60;99.90;;;;;;5071002;28;20297;-70
2021/07/29 07:01:22;;;;;;;;;;;20.10;99.90;;;;;;5069760;28;19912;-69
2021/07/29 07:03:48;;;;;;;;;;;20.20;99.90;;;;;;5070693;28;19916;-70
2021/07/29 07:06:13;;;;;;;;;;;19.40;99.90;;;;;;5069365;28;19913;-71
2021/07/29 07:08:39;;;;;;;;;;;19.90;99.90;;;;;;5060350;28;19919;-71
2021/07/29 07:11:06;;;;;;;;;;;20.20;99.90;;;;;;5074836;28;20013;-71
2021/07/29 07:13:32;;;;;;;;;;;19.90;99.90;;;;;;5069345;28;20289;-70
2021/07/29 07:15:57;;;;;;;;;;;20.80;99.90;;;;;;5073512;28;19923;-70
2021/07/29 07:18:23;;;;;;;;;;;21.00;99.90;;;;;;5066952;28;19999;-70
2021/07/29 07:20:49;;;;;;;;;;;20.90;99.90;;;;;;5057534;28;20350;-70
2021/07/29 07:23:15;;;;;;;;;;;20.10;99.90;;;;;;5090287;28;20011;-70
2021/07/29 07:25:40;;;;;;;;;;;19.90;99.90;;;;;;5093751;28;20416;-70
2021/07/29 07:28:06;;;;;;;;;;;19.20;99.90;;;;;;5091146;28;19912;-70
2021/07/29 07:30:31;;;;;;;;;;;18.80;99.90;;;;;;5075071;28;20372;-70
2021/07/29 07:33:00;;;;;;;;;;;18.50;99.90;;;;;;5076709;28;19913;-70
2021/07/29 07:35:26;;;;;;;;;;;18.80;99.90;;;;;;5072781;28;19999;-71
2021/07/29 07:37:52;;;;;;;;;;;18.70;99.90;;;;;;5073305;28;19951;-70
2021/07/29 07:40:17;;;;;;;;;;;19.80;99.90;;;;;;5092634;28;19924;-71
2021/07/29 07:42:43;;;;;;;;;;;19.90;99.90;;;;;;5094194;28;19908;-71
2021/07/29 07:45:09;;;;;;;;;;;20.20;99.90;;;;;;5064633;28;19920;-70
2021/07/29 07:47:35;;;;;;;;;;;20.40;99.90;;;;;;5055867;28;19971;-70
2021/07/29 07:50:01;;;;;;;;;;;20.30;99.90;;;;;;5083891;28;19951;-70
2021/07/29 07:52:27;;;;;;;;;;;20.80;99.90;;;;;;5093393;28;19957;-71
2021/07/29 07:54:52;;;;;;;;;;;20.80;99.90;;;;;;5062112;28;19912;-70
2021/07/29 07:57:18;;;;;;;;;;;21.40;99.90;;;;;;5057374;28;19916;-70
2021/07/29 07:59:43;;;;;;;;;;;21.40;99.90;;;;;;5080654;28;19986;-71
2021/07/29 08:02:09;;;;;;;;;;;22.30;99.90;;;;;;5073276;28;20392;-71
2021/07/29 08:04:34;;;;;;;;;;;21.40;99.90;;;;;;5081045;28;19938;-71
2021/07/29 08:07:00;;;;;;;;;;;21.30;99.90;;;;;;5067307;28;19912;-70
2021/07/29 08:09:26;;;;;;;;;;;21.60;99.90;;;;;;5073799;28;19990;-70
2021/07/29 08:11:51;;;;;;;;;;;20.50;99.90;;;;;;5092367;28;19912;-70
2021/07/29 08:14:17;;;;;;;;;;;20.20;99.90;;;;;;5092698;28;19923;-70
2021/07/29 08:16:42;;;;;;;;;;;20.40;99.90;;;;;;5096731;28;19969;-71
2021/07/29 08:19:08;;;;;;;;;;;20.10;99.90;;;;;;5071224;28;19928;-70
2021/07/29 08:21:34;;;;;;;;;;;20.50;99.90;;;;;;5075117;28;19919;-70
2021/07/29 08:23:59;;;;;;;;;;;19.70;99.90;;;;;;5089211;28;19918;-71
2021/07/29 08:26:25;;;;;;;;;;;19.70;99.90;;;;;;5074913;28;20003;-70
2021/07/29 08:28:52;;;;;;;;;;;20.50;99.90;;;;;;5087574;28;20345;-71
2021/07/29 08:31:18;;;;;;;;;;;21.30;99.90;;;;;;5087990;28;20392;-70
2021/07/29 08:33:44;;;;;;;;;;;22.00;99.90;;;;;;5062903;28;19913;-70
2021/07/29 08:36:11;;;;;;;;;;;21.10;99.90;;;;;;5090397;28;20279;-71
2021/07/29 08:38:37;;;;;;;;;;;20.50;99.90;;;;;;5092854;28;19916;-71
2021/07/29 08:41:02;;;;;;;;;;;21.40;99.90;;;;;;5077310;28;20007;-70
2021/07/29 08:43:29;;;;;;;;;;;21.30;99.90;;;;;;5062847;28;19959;-71
2021/07/29 08:45:55;;;;;;;;;;;21.50;99.90;;;;;;5079593;28;20006;-71
2021/07/29 08:48:24;;;;;;;;;;;22.00;99.90;;;;;;5078854;28;19998;-71
2021/07/29 08:50:49;;;;;;;;;;;21.80;99.90;;;;;;5097206;28;19916;-71
2021/07/29 08:53:15;;;;;;;;;;;22.10;99.90;;;;;;5081341;28;20353;-71
2021/07/29 08:55:41;;;;;;;;;;;21.00;99.90;;;;;;5079239;28;20022;-70
2021/07/29 08:58:06;;;;;;;;;;;21.70;99.90;;;;;;5095996;28;19917;-71
2021/07/29 09:00:32;;;;;;;;;;;22.00;99.90;;;;;;5084912;28;19962;-71
2021/07/29 09:03:17;;;;;;;;;;;22.00;99.90;;;;;;5090269;28;19937;-71
2021/07/29 09:05:57;;;;;;;;;;;21.30;99.90;;;;;;5079177;28;19913;-71
2021/07/29 09:08:23;;;;;;;;;;;20.40;99.90;;;;;;5061509;28;20242;-71
2021/07/29 09:10:48;;;;;;;;;;;19.90;99.90;;;;;;5091001;28;19912;-71
2021/07/29 09:13:16;;;;;;;;;;;20.10;99.90;;;;;;5086429;28;20333;-70
2021/07/29 09:15:42;;;;;;;;;;;21.50;99.90;;;;;;5092113;28;19912;-71
2021/07/29 09:18:07;;;;;;;;;;;21.70;99.90;;;;;;5061849;28;19914;-71
2021/07/29 09:20:33;;;;;;;;;;;21.60;99.90;;;;;;5086691;28;20383;-70
2021/07/29 09:23:19;;;;;;;;;;;21.40;99.90;;;;;;5081042;28;19919;-71
2021/07/29 09:25:46;;;;;;;;;;;21.50;99.90;;;;;;5090649;28;20053;-71
2021/07/29 09:28:30;;;;;;;;;;;21.20;99.90;;;;;;5081295;28;20289;-71
2021/07/29 09:30:55;;;;;;;;;;;20.80;99.90;;;;;;5096420;28;20369;-71
2021/07/29 09:33:21;;;;;;;;;;;20.80;99.90;;;;;;5093773;28;19919;-73
2021/07/29 09:35:49;;;;;;;;;;;22.20;99.90;;;;;;5085088;28;20007;-73
2021/07/29 09:38:31;;;;;;;;;;;21.70;99.90;;;;;;5089489;28;20415;-71
2021/07/29 09:41:05;;;;;;;;;;;21.80;99.90;;;;;;5095692;28;19944;-73
2021/07/29 09:43:32;;;;;;;;;;;22.70;99.90;;;;;;5096439;28;19908;-72
2021/07/29 09:45:59;;;;;;;;;;;23.10;99.90;;;;;;5069597;28;19916;-73
2021/07/29 09:48:25;;;;;;;;;;;23.90;99.90;;;;;;5075957;28;19919;-73
2021/07/29 09:50:54;;;;;;;;;;;24.00;99.90;;;;;;5095967;28;19908;-71
2021/07/29 09:53:20;;;;;;;;;;;23.60;99.90;;;;;;5084745;28;19919;-73
2021/07/29 09:55:45;;;;;;;;;;;22.90;99.90;;;;;;5062158;28;19913;-73
2021/07/29 09:58:11;;;;;;;;;;;22.80;99.90;;;;;;5070952;28;19919;-73
2021/07/29 10:00:37;;;;;;;;;;;21.70;99.90;;;;;;5095472;28;19916;-73
2021/07/29 10:03:04;;;;;;;;;;;22.40;99.90;;;;;;5077435;28;19912;-73
2021/07/29 10:05:37;;;;;;;;;;;22.70;99.90;;;;;;5096109;28;20357;-74
2021/07/29 10:08:03;;;;;;;;;;;21.60;99.90;;;;;;5094530;28;20297;-74
2021/07/29 10:10:30;;;;;;;;;;;21.30;99.90;;;;;;5096236;28;20382;-73
2021/07/29 10:12:56;;;;;;;;;;;21.50;99.90;;;;;;5071232;28;19921;-73
2021/07/29 10:15:41;;;;;;;;;;;21.30;99.90;;;;;;5060750;28;20298;-73
2021/07/29 10:18:07;;;;;;;;;;;21.10;99.90;;;;;;5075661;28;20373;-73
2021/07/29 10:20:33;;;;;;;;;;;21.10;99.90;;;;;;5095779;28;19943;-73
2021/07/29 10:23:18;;;;;;;;;;;21.20;99.90;;;;;;5094844;28;19912;-73
2021/07/29 10:26:03;;;;;;;;;;;22.20;99.90;;;;;;5076782;28;19912;-73
2021/07/29 10:28:35;;;;;;;;;;;22.60;99.90;;;;;;5094559;28;19995;-73
2021/07/29 10:31:01;;;;;;;;;;;22.10;99.90;;;;;;5076946;28;19970;-73
2021/07/29 10:33:28;;;;;;;;;;;22.70;99.90;;;;;;5075445;28;20417;-73
2021/07/29 10:35:54;;;;;;;;;;;22.00;99.90;;;;;;5087674;28;19917;-73
2021/07/29 10:38:42;;;;;;;;;;;21.70;99.90;;;;;;5093199;28;19919;-74
2021/07/29 10:41:11;;;;;;;;;;;20.60;99.90;;;;;;5100272;28;19915;-74
2021/07/29 10:43:37;;;;;;;;;;;20.70;99.90;;;;;;5077067;28;20381;-74
2021/07/29 10:46:03;;;;;;;;;;;21.40;99.90;;;;;;5085851;28;19916;-74
2021/07/29 10:48:47;;;;;;;;;;;21.60;99.90;;;;;;5069474;28;20362;-74
2021/07/29 10:51:27;;;;;;;;;;;21.80;99.90;;;;;;5078264;28;20369;-74
2021/07/29 10:53:55;;;;;;;;;;;21.90;99.90;;;;;;5076454;28;19912;-73
2021/07/29 10:56:21;;;;;;;;;;;21.00;99.90;;;;;;5076159;28;19912;-74
2021/07/29 10:58:48;;;;;;;;;;;20.90;99.90;;;;;;5077056;28;20357;-73
2021/07/29 11:01:15;;;;;;;;;;;20.60;99.90;;;;;;5090328;28;19965;-73
2021/07/29 11:03:56;;;;;;;;;;;20.50;99.90;;;;;;5075970;28;20373;-73
2021/07/29 11:06:23;;;;;;;;;;;20.80;99.90;;;;;;5061715;28;19912;-73
2021/07/29 11:08:49;;;;;;;;;;;21.10;99.90;;;;;;5094077;28;19916;-74
2021/07/29 11:11:14;;;;;;;;;;;21.10;99.90;;;;;;5086560;28;19995;-73
2021/07/29 11:13:44;;;;;;;;;;;20.90;99.90;;;;;;5074804;28;19947;-73
2021/07/29 11:16:10;;;;;;;;;;;21.70;99.90;;;;;;5072967;28;20007;-72
2021/07/29 11:18:35;;;;;;;;;;;21.50;99.90;;;;;;5099817;28;19948;-72
2021/07/29 11:21:16;;;;;;;;;;;21.30;99.90;;;;;;5056770;28;20329;-72
2021/07/29 11:23:42;;;;;;;;;;;21.30;99.90;;;;;;5094458;28;20007;-72
2021/07/29 11:26:07;;;;;;;;;;;21.70;99.90;;;;;;5058907;28;19955;-72
2021/07/29 11:28:33;;;;;;;;;;;21.70;99.90;;;;;;5075527;28;19934;-72
2021/07/29 11:30:59;;;;;;;;;;;22.00;99.90;;;;;;5055828;28;20373;-74
2021/07/29 11:33:25;;;;;;;;;;;22.00;99.90;;;;;;5074273;28;19999;-72
2021/07/29 11:35:52;;;;;;;;;;;22.30;99.90;;;;;;5092772;28;20733;-72
2021/07/29 11:38:18;;;;;;;;;;;22.40;99.90;;;;;;5086026;28;20390;-72
2021/07/29 11:40:44;;;;;;;;;;;22.00;99.90;;;;;;5093838;28;20038;-72
2021/07/29 11:43:25;;;;;;;;;;;22.10;99.90;;;;;;5086803;28;19948;-72
2021/07/29 11:45:50;;;;;;;;;;;21.90;99.90;;;;;;5091603;28;19912;-72
2021/07/29 11:48:24;;;;;;;;;;;21.10;99.90;;;;;;5092104;28;19913;-72
2021/07/29 11:50:50;;;;;;;;;;;21.10;99.90;;;;;;5082932;28;19998;-72
2021/07/29 11:53:16;;;;;;;;;;;21.10;99.90;;;;;;5088162;28;19965;-72
2021/07/29 11:55:51;;;;;;;;;;;20.80;99.90;;;;;;5085831;28;19912;-70
2021/07/29 11:58:17;;;;;;;;;;;20.70;99.90;;;;;;5073708;28;19913;-71
2021/07/29 12:00:44;;;;;;;;;;;21.40;99.90;;;;;;5089458;28;19970;-70
2021/07/29 12:03:10;;;;;;;;;;;22.10;99.90;;;;;;5093465;28;20297;-71
2021/07/29 12:05:39;;;;;;;;;;;22.20;99.90;;;;;;5087967;28;19908;-71
2021/07/29 12:08:05;;;;;;;;;;;22.50;99.90;;;;;;5093336;28;19912;-70
2021/07/29 12:10:32;;;;;;;;;;;22.30;99.90;;;;;;5061373;28;19912;-71
2021/07/29 12:12:58;;;;;;;;;;;22.00;99.90;;;;;;5073984;28;20266;-70
2021/07/29 12:15:23;;;;;;;;;;;22.30;99.90;;;;;;5075010;28;19931;-71
2021/07/29 12:17:49;;;;;;;;;;;22.40;99.90;;;;;;5093283;28;19912;-70
2021/07/29 12:20:16;;;;;;;;;;;22.50;99.90;;;;;;5055142;28;19928;-71
2021/07/29 12:22:42;;;;;;;;;;;22.40;99.90;;;;;;5059972;28;19958;-71
2021/07/29 12:25:25;;;;;;;;;;;22.50;99.90;;;;;;5075911;28;19912;-70
2021/07/29 12:27:55;;;;;;;;;;;22.50;99.90;;;;;;5065553;28;19995;-71
2021/07/29 12:30:26;;;;;;;;;;;22.50;99.90;;;;;;5086551;28;19919;-70
2021/07/29 12:33:11;;;;;;;;;;;22.70;99.90;;;;;;5075240;28;20011;-69
2021/07/29 12:35:38;;;;;;;;;;;22.40;99.90;;;;;;5073413;28;19909;-70
2021/07/29 12:38:03;;;;;;;;;;;22.20;99.90;;;;;;5071048;28;19912;-70
2021/07/29 12:40:31;;;;;;;;;;;22.50;99.90;;;;;;5058524;28;20254;-70
2021/07/29 12:43:16;;;;;;;;;;;22.80;99.90;;;;;;5074833;28;19912;-71
2021/07/29 12:45:45;;;;;;;;;;;23.20;99.90;;;;;;5079942;28;20008;-71
2021/07/29 12:48:11;;;;;;;;;;;23.20;99.90;;;;;;5092497;28;19920;-71
2021/07/29 12:50:37;;;;;;;;;;;23.10;99.90;;;;;;5075546;28;19908;-70
2021/07/29 12:53:11;;;;;;;;;;;22.90;99.90;;;;;;5059260;28;19915;-71
2021/07/29 12:55:37;;;;;;;;;;;22.60;99.90;;;;;;5093648;28;19908;-70
2021/07/29 12:58:04;;;;;;;;;;;22.50;99.90;;;;;;5086582;28;19919;-70
2021/07/29 13:00:29;;;;;;;;;;;22.40;99.80;;;;;;5093059;28;19986;-70
2021/07/29 13:02:55;;;;;;;;;;;22.20;99.90;;;;;;5075745;28;20340;-71
2021/07/29 13:05:20;;;;;;;;;;;22.00;99.20;;;;;;5072299;28;19913;-71
2021/07/29 13:07:48;;;;;;;;;;;21.80;99.00;;;;;;5093846;28;20285;-70
2021/07/29 13:10:13;;;;;;;;;;;22.00;99.80;;;;;;5074138;28;19912;-70
2021/07/29 13:12:39;;;;;;;;;;;22.40;99.80;;;;;;5093658;28;19973;-71
2021/07/29 13:15:05;;;;;;;;;;;22.40;99.40;;;;;;5090438;28;19999;-71
2021/07/29 13:17:30;;;;;;;;;;;22.50;99.40;;;;;;5071860;28;19931;-72
2021/07/29 13:20:00;;;;;;;;;;;22.20;99.90;;;;;;5085980;28;20400;-73
2021/07/29 13:22:26;;;;;;;;;;;21.90;99.90;;;;;;5064989;28;20285;-69
2021/07/29 13:24:51;;;;;;;;;;;21.80;99.90;;;;;;5087838;28;19919;-69
2021/07/29 13:27:17;;;;;;;;;;;21.70;99.90;;;;;;5068518;28;20219;-69
2021/07/29 13:29:42;;;;;;;;;;;21.60;99.90;;;;;;5076583;28;19912;-69
2021/07/29 13:32:08;;;;;;;;;;;21.50;99.90;;;;;;5094536;28;19923;-70
2021/07/29 13:34:33;;;;;;;;;;;21.80;99.90;;;;;;5096564;28;19912;-69
2021/07/29 13:36:59;;;;;;;;;;;22.00;99.90;;;;;;5058060;28;19919;-70
2021/07/29 13:39:24;;;;;;;;;;;21.80;99.90;;;;;;5066198;28;20273;-70
2021/07/29 13:41:51;;;;;;;;;;;22.30;99.90;;;;;;5058273;28;19912;-69
2021/07/29 13:44:20;;;;;;;;;;;22.60;99.90;;;;;;5073656;28;19916;-70
2021/07/29 13:46:46;;;;;;;;;;;23.10;99.90;;;;;;5091607;28;19912;-69
2021/07/29 13:49:12;;;;;;;;;;;22.90;98.30;;;;;;5078345;28;19915;-69
2021/07/29 13:51:37;;;;;;;;;;;22.80;98.20;;;;;;5092218;28;19919;-69
2021/07/29 13:54:03;;;;;;;;;;;22.40;98.20;;;;;;5069031;28;19912;-69
2021/07/29 13:56:28;;;;;;;;;;;22.10;99.30;;;;;;5077087;28;19916;-69
2021/07/29 13:58:54;;;;;;;;;;;22.20;99.80;;;;;;5087331;28;19913;-69
2021/07/29 14:01:21;;;;;;;;;;;22.20;99.90;;;;;;5086852;28;19939;-69
2021/07/29 14:03:47;;;;;;;;;;;22.20;98.90;;;;;;5094501;28;19919;-69
2021/07/29 14:06:12;;;;;;;;;;;22.20;99.70;;;;;;5096018;28;19909;-70
2021/07/29 14:08:38;;;;;;;;;;;22.20;98.70;;;;;;5095291;28;19916;-70
2021/07/29 14:11:03;;;;;;;;;;;22.40;99.60;;;;;;5095840;28;19912;-70
2021/07/29 14:13:30;;;;;;;;;;;22.50;99.00;;;;;;5077417;28;19912;-70
2021/07/29 14:15:56;;;;;;;;;;;22.30;98.70;;;;;;5079424;28;19999;-70